Terminal Aerodrome Forecast
Issued by NWS

Home | Current Version | Previous Version | Text Only | Print | Product List | Glossary On
Versions: 1 2 3 4 5 6 7 8 9 10 11 12 13
000
FTUS43 KGRR 262300
TAFLAN
TAF
KLAN 262340Z 2700/2724 35010KT P6SM BKN070
     FM270500 35008KT P6SM BKN060
     FM271000 32008KT P6SM BKN012
     FM271600 34012KT P6SM FEW015 BKN030=

USA.gov is the U.S. government's official web portal to all federal, state and local government web resources and services.